sensor_id;sensor_type;location;lat;lon;timestamp;P1;durP1;ratioP1;P2;durP2;ratioP2
20296;SDS011;10307;40.100;18.336;2022-12-18T00:01:25;23.33;;;15.02;;
20296;SDS011;10307;40.100;18.336;2022-12-18T00:03:54;24.88;;;14.38;;
20296;SDS011;10307;40.100;18.336;2022-12-18T00:06:21;25.98;;;14.35;;
20296;SDS011;10307;40.100;18.336;2022-12-18T00:08:49;25.98;;;15.10;;
20296;SDS011;10307;40.100;18.336;2022-12-18T00:11:18;25.55;;;18.13;;
20296;SDS011;10307;40.100;18.336;2022-12-18T00:13:46;28.85;;;17.55;;
20296;SDS011;10307;40.100;18.336;2022-12-18T00:16:14;32.08;;;18.92;;
20296;SDS011;10307;40.100;18.336;2022-12-18T00:18:48;37.92;;;21.02;;
20296;SDS011;10307;40.100;18.336;2022-12-18T00:21:15;31.83;;;18.90;;
20296;SDS011;10307;40.100;18.336;2022-12-18T00:23:42;36.88;;;19.80;;
20296;SDS011;10307;40.100;18.336;2022-12-18T00:26:11;31.92;;;18.58;;
20296;SDS011;10307;40.100;18.336;2022-12-18T00:28:39;25.92;;;15.85;;
20296;SDS011;10307;40.100;18.336;2022-12-18T00:31:06;25.25;;;17.58;;
20296;SDS011;10307;40.100;18.336;2022-12-18T00:33:35;28.00;;;17.60;;
20296;SDS011;10307;40.100;18.336;2022-12-18T00:36:06;29.38;;;17.17;;
20296;SDS011;10307;40.100;18.336;2022-12-18T00:38:33;28.73;;;16.73;;
20296;SDS011;10307;40.100;18.336;2022-12-18T00:41:00;27.67;;;16.50;;
20296;SDS011;10307;40.100;18.336;2022-12-18T00:43:27;27.63;;;15.02;;
20296;SDS011;10307;40.100;18.336;2022-12-18T00:45:53;25.58;;;14.00;;
20296;SDS011;10307;40.100;18.336;2022-12-18T00:48:20;24.67;;;14.45;;
20296;SDS011;10307;40.100;18.336;2022-12-18T00:50:47;23.92;;;13.10;;
20296;SDS011;10307;40.100;18.336;2022-12-18T00:53:14;24.25;;;15.18;;
20296;SDS011;10307;40.100;18.336;2022-12-18T00:55:41;27.50;;;14.85;;
20296;SDS011;10307;40.100;18.336;2022-12-18T00:58:08;26.35;;;14.95;;
20296;SDS011;10307;40.100;18.336;2022-12-18T01:00:36;23.80;;;15.18;;
20296;SDS011;10307;40.100;18.336;2022-12-18T01:03:03;29.98;;;15.63;;
20296;SDS011;10307;40.100;18.336;2022-12-18T01:05:30;24.63;;;13.57;;
20296;SDS011;10307;40.100;18.336;2022-12-18T01:07:57;21.42;;;13.73;;
20296;SDS011;10307;40.100;18.336;2022-12-18T01:10:25;25.27;;;14.85;;
20296;SDS011;10307;40.100;18.336;2022-12-18T01:12:51;21.58;;;14.57;;
20296;SDS011;10307;40.100;18.336;2022-12-18T01:15:18;24.35;;;14.50;;
20296;SDS011;10307;40.100;18.336;2022-12-18T01:17:44;25.48;;;15.27;;
20296;SDS011;10307;40.100;18.336;2022-12-18T01:20:11;22.90;;;14.27;;
20296;SDS011;10307;40.100;18.336;2022-12-18T01:22:38;23.05;;;14.93;;
20296;SDS011;10307;40.100;18.336;2022-12-18T01:25:06;23.45;;;15.43;;
20296;SDS011;10307;40.100;18.336;2022-12-18T01:27:33;23.42;;;14.57;;
20296;SDS011;10307;40.100;18.336;2022-12-18T01:30:03;26.42;;;14.40;;
20296;SDS011;10307;40.100;18.336;2022-12-18T01:32:30;25.75;;;14.75;;
20296;SDS011;10307;40.100;18.336;2022-12-18T01:34:57;24.50;;;13.82;;
20296;SDS011;10307;40.100;18.336;2022-12-18T01:37:23;25.05;;;14.25;;
20296;SDS011;10307;40.100;18.336;2022-12-18T01:39:50;23.17;;;14.88;;
20296;SDS011;10307;40.100;18.336;2022-12-18T01:42:19;21.50;;;14.38;;
20296;SDS011;10307;40.100;18.336;2022-12-18T01:47:46;22.33;;;12.77;;
20296;SDS011;10307;40.100;18.336;2022-12-18T01:50:30;22.02;;;12.95;;
20296;SDS011;10307;40.100;18.336;2022-12-18T01:55:30;19.67;;;13.23;;
20296;SDS011;10307;40.100;18.336;2022-12-18T01:58:04;22.75;;;14.30;;
20296;SDS011;10307;40.100;18.336;2022-12-18T02:00:34;22.85;;;13.90;;
20296;SDS011;10307;40.100;18.336;2022-12-18T02:03:07;24.83;;;14.57;;
20296;SDS011;10307;40.100;18.336;2022-12-18T02:11:06;23.50;;;14.15;;
20296;SDS011;10307;40.100;18.336;2022-12-18T02:14:01;20.63;;;13.38;;
20296;SDS011;10307;40.100;18.336;2022-12-18T02:19:21;19.92;;;12.77;;
20296;SDS011;10307;40.100;18.336;2022-12-18T02:27:31;21.88;;;12.75;;
20296;SDS011;10307;40.100;18.336;2022-12-18T02:29:59;20.10;;;12.65;;
20296;SDS011;10307;40.100;18.336;2022-12-18T02:32:31;19.70;;;11.98;;
20296;SDS011;10307;40.100;18.336;2022-12-18T02:35:06;18.27;;;12.40;;
20296;SDS011;10307;40.100;18.336;2022-12-18T02:37:36;24.50;;;13.38;;
20296;SDS011;10307;40.100;18.336;2022-12-18T02:40:06;22.60;;;12.45;;
20296;SDS011;10307;40.100;18.336;2022-12-18T02:42:36;21.90;;;12.30;;
20296;SDS011;10307;40.100;18.336;2022-12-18T02:45:05;17.48;;;11.65;;
20296;SDS011;10307;40.100;18.336;2022-12-18T02:47:34;20.70;;;11.48;;
20296;SDS011;10307;40.100;18.336;2022-12-18T02:58:18;23.00;;;11.80;;
20296;SDS011;10307;40.100;18.336;2022-12-18T03:04:13;19.48;;;11.43;;
20296;SDS011;10307;40.100;18.336;2022-12-18T03:06:48;25.13;;;11.98;;
20296;SDS011;10307;40.100;18.336;2022-12-18T03:09:28;18.73;;;12.48;;
20296;SDS011;10307;40.100;18.336;2022-12-18T03:14:51;16.08;;;10.73;;
20296;SDS011;10307;40.100;18.336;2022-12-18T03:17:55;18.50;;;11.38;;
20296;SDS011;10307;40.100;18.336;2022-12-18T03:20:31;19.23;;;11.75;;
20296;SDS011;10307;40.100;18.336;2022-12-18T03:23:02;20.15;;;10.48;;
20296;SDS011;10307;40.100;18.336;2022-12-18T03:25:34;16.30;;;11.40;;
20296;SDS011;10307;40.100;18.336;2022-12-18T03:28:05;19.13;;;11.73;;
20296;SDS011;10307;40.100;18.336;2022-12-18T03:30:38;17.50;;;11.30;;
20296;SDS011;10307;40.100;18.336;2022-12-18T03:33:15;20.92;;;10.85;;
20296;SDS011;10307;40.100;18.336;2022-12-18T03:35:50;17.98;;;10.70;;
20296;SDS011;10307;40.100;18.336;2022-12-18T03:38:18;18.98;;;9.32;;
20296;SDS011;10307;40.100;18.336;2022-12-18T03:48:59;14.82;;;9.68;;
20296;SDS011;10307;40.100;18.336;2022-12-18T03:54:39;15.77;;;9.48;;
20296;SDS011;10307;40.100;18.336;2022-12-18T03:57:19;14.32;;;9.13;;
20296;SDS011;10307;40.100;18.336;2022-12-18T03:59:51;14.80;;;9.20;;
20296;SDS011;10307;40.100;18.336;2022-12-18T04:02:26;15.10;;;8.73;;
20296;SDS011;10307;40.100;18.336;2022-12-18T04:04:57;18.02;;;9.38;;
20296;SDS011;10307;40.100;18.336;2022-12-18T04:07:26;17.27;;;9.77;;
20296;SDS011;10307;40.100;18.336;2022-12-18T04:09:56;19.35;;;9.07;;
20296;SDS011;10307;40.100;18.336;2022-12-18T04:12:28;16.10;;;8.97;;
20296;SDS011;10307;40.100;18.336;2022-12-18T04:14:56;16.77;;;9.93;;
20296;SDS011;10307;40.100;18.336;2022-12-18T04:17:22;14.23;;;8.85;;
20296;SDS011;10307;40.100;18.336;2022-12-18T04:19:49;15.25;;;8.18;;
20296;SDS011;10307;40.100;18.336;2022-12-18T04:22:16;17.23;;;8.57;;
20296;SDS011;10307;40.100;18.336;2022-12-18T04:24:46;13.43;;;8.15;;
20296;SDS011;10307;40.100;18.336;2022-12-18T04:27:25;17.77;;;9.32;;
20296;SDS011;10307;40.100;18.336;2022-12-18T04:29:52;15.82;;;8.30;;
20296;SDS011;10307;40.100;18.336;2022-12-18T04:32:18;14.98;;;8.20;;
20296;SDS011;10307;40.100;18.336;2022-12-18T04:34:46;14.85;;;8.07;;
20296;SDS011;10307;40.100;18.336;2022-12-18T04:37:12;15.80;;;8.43;;
20296;SDS011;10307;40.100;18.336;2022-12-18T04:39:39;15.57;;;7.93;;
20296;SDS011;10307;40.100;18.336;2022-12-18T04:42:12;14.75;;;7.88;;
20296;SDS011;10307;40.100;18.336;2022-12-18T04:44:38;19.58;;;8.55;;
20296;SDS011;10307;40.100;18.336;2022-12-18T04:47:05;15.93;;;7.60;;
20296;SDS011;10307;40.100;18.336;2022-12-18T04:49:31;16.20;;;8.73;;
20296;SDS011;10307;40.100;18.336;2022-12-18T04:51:57;13.77;;;8.40;;
20296;SDS011;10307;40.100;18.336;2022-12-18T04:54:23;12.60;;;7.97;;
20296;SDS011;10307;40.100;18.336;2022-12-18T04:56:50;17.23;;;8.32;;
20296;SDS011;10307;40.100;18.336;2022-12-18T04:59:16;15.55;;;8.35;;
20296;SDS011;10307;40.100;18.336;2022-12-18T05:01:42;14.15;;;7.47;;
20296;SDS011;10307;40.100;18.336;2022-12-18T05:04:08;13.02;;;7.43;;
20296;SDS011;10307;40.100;18.336;2022-12-18T05:06:34;12.85;;;7.15;;
20296;SDS011;10307;40.100;18.336;2022-12-18T05:09:01;11.90;;;7.03;;
20296;SDS011;10307;40.100;18.336;2022-12-18T05:11:27;19.35;;;8.02;;
20296;SDS011;10307;40.100;18.336;2022-12-18T05:13:53;13.90;;;7.85;;
20296;SDS011;10307;40.100;18.336;2022-12-18T05:16:22;12.07;;;7.72;;
20296;SDS011;10307;40.100;18.336;2022-12-18T05:18:49;12.45;;;7.32;;
20296;SDS011;10307;40.100;18.336;2022-12-18T05:21:15;15.60;;;7.53;;
20296;SDS011;10307;40.100;18.336;2022-12-18T05:23:41;14.80;;;8.48;;
20296;SDS011;10307;40.100;18.336;2022-12-18T05:26:07;16.23;;;7.65;;
20296;SDS011;10307;40.100;18.336;2022-12-18T05:28:39;15.10;;;7.20;;
20296;SDS011;10307;40.100;18.336;2022-12-18T05:31:05;18.50;;;6.85;;
20296;SDS011;10307;40.100;18.336;2022-12-18T05:33:32;13.73;;;6.25;;
20296;SDS011;10307;40.100;18.336;2022-12-18T05:36:00;13.45;;;6.65;;
20296;SDS011;10307;40.100;18.336;2022-12-18T05:38:28;14.65;;;6.75;;
20296;SDS011;10307;40.100;18.336;2022-12-18T05:40:56;15.90;;;7.20;;
20296;SDS011;10307;40.100;18.336;2022-12-18T05:43:22;13.05;;;5.82;;
20296;SDS011;10307;40.100;18.336;2022-12-18T05:45:50;11.07;;;5.85;;
20296;SDS011;10307;40.100;18.336;2022-12-18T05:48:18;11.80;;;6.25;;
20296;SDS011;10307;40.100;18.336;2022-12-18T05:50:46;16.35;;;6.25;;
20296;SDS011;10307;40.100;18.336;2022-12-18T05:53:14;12.85;;;5.68;;
20296;SDS011;10307;40.100;18.336;2022-12-18T05:55:41;12.73;;;6.00;;
20296;SDS011;10307;40.100;18.336;2022-12-18T05:58:10;10.18;;;5.60;;
20296;SDS011;10307;40.100;18.336;2022-12-18T06:00:38;11.63;;;5.53;;
20296;SDS011;10307;40.100;18.336;2022-12-18T06:03:07;10.60;;;4.72;;
20296;SDS011;10307;40.100;18.336;2022-12-18T06:05:39;11.50;;;4.88;;
20296;SDS011;10307;40.100;18.336;2022-12-18T06:08:10;11.98;;;4.57;;
20296;SDS011;10307;40.100;18.336;2022-12-18T06:10:37;10.23;;;5.40;;
20296;SDS011;10307;40.100;18.336;2022-12-18T06:13:04;13.23;;;6.20;;
20296;SDS011;10307;40.100;18.336;2022-12-18T06:15:31;15.85;;;5.53;;
20296;SDS011;10307;40.100;18.336;2022-12-18T06:17:59;9.10;;;4.13;;
20296;SDS011;10307;40.100;18.336;2022-12-18T06:20:26;8.60;;;4.10;;
20296;SDS011;10307;40.100;18.336;2022-12-18T06:22:52;13.13;;;4.72;;
20296;SDS011;10307;40.100;18.336;2022-12-18T06:25:18;10.45;;;4.75;;
20296;SDS011;10307;40.100;18.336;2022-12-18T06:27:46;11.55;;;4.75;;
20296;SDS011;10307;40.100;18.336;2022-12-18T06:30:13;10.25;;;4.85;;
20296;SDS011;10307;40.100;18.336;2022-12-18T06:32:40;12.80;;;5.18;;
20296;SDS011;10307;40.100;18.336;2022-12-18T06:35:07;9.88;;;4.68;;
20296;SDS011;10307;40.100;18.336;2022-12-18T06:37:33;10.40;;;4.20;;
20296;SDS011;10307;40.100;18.336;2022-12-18T06:39:59;10.75;;;4.20;;
20296;SDS011;10307;40.100;18.336;2022-12-18T06:42:26;11.32;;;4.30;;
20296;SDS011;10307;40.100;18.336;2022-12-18T06:44:53;9.57;;;3.92;;
20296;SDS011;10307;40.100;18.336;2022-12-18T06:47:20;11.77;;;5.20;;
20296;SDS011;10307;40.100;18.336;2022-12-18T06:49:46;10.50;;;5.13;;
20296;SDS011;10307;40.100;18.336;2022-12-18T06:52:13;14.20;;;4.25;;
20296;SDS011;10307;40.100;18.336;2022-12-18T06:54:39;10.15;;;4.40;;
20296;SDS011;10307;40.100;18.336;2022-12-18T06:57:06;9.05;;;4.22;;
20296;SDS011;10307;40.100;18.336;2022-12-18T06:59:32;13.13;;;4.30;;
20296;SDS011;10307;40.100;18.336;2022-12-18T07:01:58;7.97;;;3.80;;
20296;SDS011;10307;40.100;18.336;2022-12-18T07:04:31;15.25;;;5.47;;
20296;SDS011;10307;40.100;18.336;2022-12-18T07:06:57;10.07;;;5.03;;
20296;SDS011;10307;40.100;18.336;2022-12-18T07:09:24;9.70;;;3.83;;
20296;SDS011;10307;40.100;18.336;2022-12-18T07:11:50;10.63;;;4.38;;
20296;SDS011;10307;40.100;18.336;2022-12-18T07:14:16;8.80;;;4.10;;
20296;SDS011;10307;40.100;18.336;2022-12-18T07:16:43;10.30;;;3.75;;
20296;SDS011;10307;40.100;18.336;2022-12-18T07:19:09;9.52;;;4.20;;
20296;SDS011;10307;40.100;18.336;2022-12-18T07:21:35;10.23;;;4.55;;
20296;SDS011;10307;40.100;18.336;2022-12-18T07:24:01;10.75;;;4.85;;
20296;SDS011;10307;40.100;18.336;2022-12-18T07:26:28;11.43;;;4.38;;
20296;SDS011;10307;40.100;18.336;2022-12-18T07:28:55;9.68;;;3.78;;
20296;SDS011;10307;40.100;18.336;2022-12-18T07:31:23;9.85;;;3.85;;
20296;SDS011;10307;40.100;18.336;2022-12-18T07:33:50;8.10;;;3.80;;
20296;SDS011;10307;40.100;18.336;2022-12-18T07:36:17;8.52;;;4.25;;
20296;SDS011;10307;40.100;18.336;2022-12-18T07:38:46;8.15;;;3.60;;
20296;SDS011;10307;40.100;18.336;2022-12-18T07:41:13;9.32;;;4.15;;
20296;SDS011;10307;40.100;18.336;2022-12-18T07:43:40;11.95;;;3.85;;
20296;SDS011;10307;40.100;18.336;2022-12-18T07:46:07;11.10;;;4.45;;
20296;SDS011;10307;40.100;18.336;2022-12-18T07:48:34;8.57;;;3.92;;
20296;SDS011;10307;40.100;18.336;2022-12-18T07:51:01;11.20;;;4.22;;
20296;SDS011;10307;40.100;18.336;2022-12-18T07:53:30;14.30;;;5.05;;
20296;SDS011;10307;40.100;18.336;2022-12-18T07:56:00;11.05;;;5.35;;
20296;SDS011;10307;40.100;18.336;2022-12-18T07:58:28;15.32;;;4.65;;
20296;SDS011;10307;40.100;18.336;2022-12-18T08:01:02;10.20;;;4.35;;
20296;SDS011;10307;40.100;18.336;2022-12-18T08:03:36;11.32;;;4.60;;
20296;SDS011;10307;40.100;18.336;2022-12-18T08:06:05;9.27;;;4.28;;
20296;SDS011;10307;40.100;18.336;2022-12-18T08:08:33;9.57;;;3.80;;
20296;SDS011;10307;40.100;18.336;2022-12-18T08:10:59;10.00;;;4.22;;
20296;SDS011;10307;40.100;18.336;2022-12-18T08:13:26;10.18;;;3.88;;
20296;SDS011;10307;40.100;18.336;2022-12-18T08:16:03;10.95;;;4.57;;
20296;SDS011;10307;40.100;18.336;2022-12-18T08:18:32;12.77;;;4.20;;
20296;SDS011;10307;40.100;18.336;2022-12-18T08:21:07;13.80;;;5.03;;
20296;SDS011;10307;40.100;18.336;2022-12-18T08:23:41;13.10;;;5.10;;
20296;SDS011;10307;40.100;18.336;2022-12-18T08:26:07;13.30;;;5.85;;
20296;SDS011;10307;40.100;18.336;2022-12-18T08:28:34;22.25;;;7.32;;
20296;SDS011;10307;40.100;18.336;2022-12-18T08:31:01;22.90;;;9.43;;
20296;SDS011;10307;40.100;18.336;2022-12-18T08:33:27;13.02;;;5.75;;
20296;SDS011;10307;40.100;18.336;2022-12-18T08:35:54;14.32;;;5.05;;
20296;SDS011;10307;40.100;18.336;2022-12-18T08:38:20;13.95;;;4.15;;
20296;SDS011;10307;40.100;18.336;2022-12-18T08:40:48;12.75;;;4.60;;
20296;SDS011;10307;40.100;18.336;2022-12-18T08:43:14;9.00;;;3.75;;
20296;SDS011;10307;40.100;18.336;2022-12-18T08:45:59;15.63;;;4.10;;
20296;SDS011;10307;40.100;18.336;2022-12-18T08:48:25;10.02;;;3.92;;
20296;SDS011;10307;40.100;18.336;2022-12-18T08:50:58;12.73;;;5.20;;
20296;SDS011;10307;40.100;18.336;2022-12-18T08:53:25;11.52;;;5.15;;
20296;SDS011;10307;40.100;18.336;2022-12-18T08:55:52;12.48;;;4.10;;
20296;SDS011;10307;40.100;18.336;2022-12-18T08:58:19;10.10;;;3.95;;
20296;SDS011;10307;40.100;18.336;2022-12-18T09:00:45;16.92;;;4.57;;
20296;SDS011;10307;40.100;18.336;2022-12-18T09:03:12;10.30;;;4.10;;
20296;SDS011;10307;40.100;18.336;2022-12-18T09:05:47;8.95;;;3.20;;
20296;SDS011;10307;40.100;18.336;2022-12-18T09:08:14;11.85;;;4.68;;
20296;SDS011;10307;40.100;18.336;2022-12-18T09:10:47;13.88;;;3.58;;
20296;SDS011;10307;40.100;18.336;2022-12-18T09:13:15;10.82;;;4.40;;
20296;SDS011;10307;40.100;18.336;2022-12-18T09:15:42;9.60;;;3.47;;
20296;SDS011;10307;40.100;18.336;2022-12-18T09:18:20;9.90;;;3.25;;
20296;SDS011;10307;40.100;18.336;2022-12-18T09:20:47;13.63;;;3.08;;
20296;SDS011;10307;40.100;18.336;2022-12-18T09:23:15;7.95;;;3.10;;
20296;SDS011;10307;40.100;18.336;2022-12-18T09:25:41;10.40;;;3.63;;
20296;SDS011;10307;40.100;18.336;2022-12-18T09:28:14;9.90;;;3.03;;
20296;SDS011;10307;40.100;18.336;2022-12-18T09:30:44;7.75;;;3.20;;
20296;SDS011;10307;40.100;18.336;2022-12-18T09:33:12;10.30;;;2.83;;
20296;SDS011;10307;40.100;18.336;2022-12-18T09:35:39;10.68;;;3.35;;
20296;SDS011;10307;40.100;18.336;2022-12-18T09:38:07;13.63;;;3.30;;
20296;SDS011;10307;40.100;18.336;2022-12-18T09:40:41;10.18;;;4.07;;
20296;SDS011;10307;40.100;18.336;2022-12-18T09:43:25;10.63;;;2.63;;
20296;SDS011;10307;40.100;18.336;2022-12-18T09:46:03;7.50;;;2.58;;
20296;SDS011;10307;40.100;18.336;2022-12-18T09:48:40;7.53;;;2.73;;
20296;SDS011;10307;40.100;18.336;2022-12-18T09:51:18;10.23;;;2.17;;
20296;SDS011;10307;40.100;18.336;2022-12-18T09:53:53;8.30;;;3.10;;
20296;SDS011;10307;40.100;18.336;2022-12-18T09:56:22;5.43;;;1.88;;
20296;SDS011;10307;40.100;18.336;2022-12-18T09:59:01;5.22;;;2.30;;
20296;SDS011;10307;40.100;18.336;2022-12-18T10:01:29;8.93;;;1.90;;
20296;SDS011;10307;40.100;18.336;2022-12-18T10:03:57;7.30;;;2.22;;
20296;SDS011;10307;40.100;18.336;2022-12-18T10:06:26;11.05;;;2.10;;
20296;SDS011;10307;40.100;18.336;2022-12-18T10:14:46;5.88;;;2.17;;
20296;SDS011;10307;40.100;18.336;2022-12-18T10:17:36;6.13;;;2.67;;
20296;SDS011;10307;40.100;18.336;2022-12-18T10:25:52;8.18;;;2.05;;
20296;SDS011;10307;40.100;18.336;2022-12-18T10:28:31;8.32;;;1.88;;
20296;SDS011;10307;40.100;18.336;2022-12-18T10:31:00;8.25;;;3.13;;
20296;SDS011;10307;40.100;18.336;2022-12-18T10:33:31;3.95;;;1.48;;
20296;SDS011;10307;40.100;18.336;2022-12-18T10:35:59;7.13;;;2.20;;
20296;SDS011;10307;40.100;18.336;2022-12-18T10:38:26;6.30;;;2.45;;
20296;SDS011;10307;40.100;18.336;2022-12-18T10:40:55;8.85;;;2.00;;
20296;SDS011;10307;40.100;18.336;2022-12-18T10:43:27;9.68;;;3.65;;
20296;SDS011;10307;40.100;18.336;2022-12-18T10:48:26;5.63;;;1.95;;
20296;SDS011;10307;40.100;18.336;2022-12-18T10:50:54;5.15;;;1.73;;
20296;SDS011;10307;40.100;18.336;2022-12-18T10:53:24;4.47;;;1.42;;
20296;SDS011;10307;40.100;18.336;2022-12-18T10:55:53;10.02;;;1.67;;
20296;SDS011;10307;40.100;18.336;2022-12-18T11:06:10;7.25;;;2.03;;
20296;SDS011;10307;40.100;18.336;2022-12-18T11:08:38;5.30;;;1.42;;
20296;SDS011;10307;40.100;18.336;2022-12-18T11:11:17;5.60;;;1.60;;
20296;SDS011;10307;40.100;18.336;2022-12-18T11:14:03;5.25;;;2.30;;
20296;SDS011;10307;40.100;18.336;2022-12-18T11:16:34;6.22;;;1.73;;
20296;SDS011;10307;40.100;18.336;2022-12-18T11:19:19;9.35;;;3.05;;
20296;SDS011;10307;40.100;18.336;2022-12-18T11:21:49;12.40;;;4.53;;
20296;SDS011;10307;40.100;18.336;2022-12-18T11:24:19;10.38;;;3.90;;
20296;SDS011;10307;40.100;18.336;2022-12-18T11:26:48;8.23;;;2.30;;
20296;SDS011;10307;40.100;18.336;2022-12-18T11:29:19;7.07;;;3.03;;
20296;SDS011;10307;40.100;18.336;2022-12-18T11:32:01;7.40;;;2.30;;
20296;SDS011;10307;40.100;18.336;2022-12-18T11:34:46;5.68;;;1.90;;
20296;SDS011;10307;40.100;18.336;2022-12-18T11:37:15;4.63;;;2.55;;
20296;SDS011;10307;40.100;18.336;2022-12-18T11:39:56;6.68;;;1.58;;
20296;SDS011;10307;40.100;18.336;2022-12-18T11:42:35;4.22;;;1.45;;
20296;SDS011;10307;40.100;18.336;2022-12-18T11:47:40;4.60;;;1.73;;
20296;SDS011;10307;40.100;18.336;2022-12-18T11:50:29;5.90;;;2.08;;
20296;SDS011;10307;40.100;18.336;2022-12-18T11:53:10;7.18;;;2.40;;
20296;SDS011;10307;40.100;18.336;2022-12-18T11:55:47;18.10;;;3.58;;
20296;SDS011;10307;40.100;18.336;2022-12-18T12:01:47;3.72;;;2.35;;
20296;SDS011;10307;40.100;18.336;2022-12-18T12:21:40;7.25;;;1.60;;
20296;SDS011;10307;40.100;18.336;2022-12-18T12:30:11;7.10;;;2.08;;
20296;SDS011;10307;40.100;18.336;2022-12-18T12:36:32;10.38;;;3.00;;
20296;SDS011;10307;40.100;18.336;2022-12-18T12:38:45;4.32;;;1.73;;
20296;SDS011;10307;40.100;18.336;2022-12-18T12:41:17;4.85;;;1.40;;
20296;SDS011;10307;40.100;18.336;2022-12-18T12:44:06;3.08;;;1.30;;
20296;SDS011;10307;40.100;18.336;2022-12-18T12:46:39;5.50;;;1.80;;
20296;SDS011;10307;40.100;18.336;2022-12-18T12:49:14;5.45;;;1.98;;
20296;SDS011;10307;40.100;18.336;2022-12-18T12:52:20;6.32;;;2.45;;
20296;SDS011;10307;40.100;18.336;2022-12-18T12:54:39;7.10;;;2.50;;
20296;SDS011;10307;40.100;18.336;2022-12-18T12:57:19;5.78;;;2.30;;
20296;SDS011;10307;40.100;18.336;2022-12-18T13:00:07;6.65;;;2.10;;
20296;SDS011;10307;40.100;18.336;2022-12-18T13:02:58;7.78;;;2.35;;
20296;SDS011;10307;40.100;18.336;2022-12-18T13:08:34;13.10;;;3.45;;
20296;SDS011;10307;40.100;18.336;2022-12-18T13:14:36;6.82;;;2.08;;
20296;SDS011;10307;40.100;18.336;2022-12-18T13:19:49;3.65;;;1.60;;
20296;SDS011;10307;40.100;18.336;2022-12-18T13:22:24;7.47;;;1.88;;
20296;SDS011;10307;40.100;18.336;2022-12-18T13:24:56;5.63;;;1.70;;
20296;SDS011;10307;40.100;18.336;2022-12-18T13:35:41;6.70;;;3.05;;
20296;SDS011;10307;40.100;18.336;2022-12-18T13:38:23;7.78;;;2.63;;
20296;SDS011;10307;40.100;18.336;2022-12-18T13:40:58;5.55;;;1.98;;
20296;SDS011;10307;40.100;18.336;2022-12-18T13:43:31;8.25;;;2.08;;
20296;SDS011;10307;40.100;18.336;2022-12-18T13:48:31;4.93;;;2.42;;
20296;SDS011;10307;40.100;18.336;2022-12-18T13:51:03;5.67;;;1.93;;
20296;SDS011;10307;40.100;18.336;2022-12-18T13:53:39;4.82;;;2.03;;
20296;SDS011;10307;40.100;18.336;2022-12-18T13:56:20;5.13;;;2.05;;
20296;SDS011;10307;40.100;18.336;2022-12-18T14:01:44;6.20;;;1.73;;
20296;SDS011;10307;40.100;18.336;2022-12-18T14:06:49;8.95;;;2.70;;
20296;SDS011;10307;40.100;18.336;2022-12-18T14:09:25;4.53;;;2.00;;
20296;SDS011;10307;40.100;18.336;2022-12-18T14:11:54;8.98;;;3.15;;
20296;SDS011;10307;40.100;18.336;2022-12-18T14:14:43;5.57;;;3.08;;
20296;SDS011;10307;40.100;18.336;2022-12-18T14:17:12;6.25;;;2.00;;
20296;SDS011;10307;40.100;18.336;2022-12-18T14:19:46;5.80;;;2.08;;
20296;SDS011;10307;40.100;18.336;2022-12-18T14:22:19;5.97;;;2.38;;
20296;SDS011;10307;40.100;18.336;2022-12-18T14:30:37;7.30;;;2.65;;
20296;SDS011;10307;40.100;18.336;2022-12-18T14:35:52;10.10;;;2.28;;
20296;SDS011;10307;40.100;18.336;2022-12-18T14:38:27;10.45;;;3.13;;
20296;SDS011;10307;40.100;18.336;2022-12-18T14:41:12;7.93;;;2.83;;
20296;SDS011;10307;40.100;18.336;2022-12-18T14:43:40;12.57;;;4.10;;
20296;SDS011;10307;40.100;18.336;2022-12-18T14:49:29;8.57;;;3.25;;
20296;SDS011;10307;40.100;18.336;2022-12-18T14:52:04;8.82;;;3.17;;
20296;SDS011;10307;40.100;18.336;2022-12-18T14:54:32;8.98;;;3.42;;
20296;SDS011;10307;40.100;18.336;2022-12-18T14:57:16;7.68;;;2.80;;
20296;SDS011;10307;40.100;18.336;2022-12-18T14:59:52;12.35;;;3.67;;
20296;SDS011;10307;40.100;18.336;2022-12-18T15:02:20;8.20;;;3.40;;
20296;SDS011;10307;40.100;18.336;2022-12-18T15:04:59;7.75;;;2.90;;
20296;SDS011;10307;40.100;18.336;2022-12-18T15:10:18;12.77;;;3.90;;
20296;SDS011;10307;40.100;18.336;2022-12-18T15:20:48;9.93;;;3.88;;
20296;SDS011;10307;40.100;18.336;2022-12-18T15:23:21;9.93;;;3.92;;
20296;SDS011;10307;40.100;18.336;2022-12-18T15:26:08;10.98;;;4.22;;
20296;SDS011;10307;40.100;18.336;2022-12-18T15:28:44;10.02;;;5.30;;
20296;SDS011;10307;40.100;18.336;2022-12-18T15:34:00;8.63;;;4.68;;
20296;SDS011;10307;40.100;18.336;2022-12-18T15:36:35;14.93;;;5.50;;
20296;SDS011;10307;40.100;18.336;2022-12-18T15:39:03;16.52;;;5.43;;
20296;SDS011;10307;40.100;18.336;2022-12-18T15:41:31;12.73;;;5.43;;
20296;SDS011;10307;40.100;18.336;2022-12-18T15:43:59;20.35;;;8.25;;
20296;SDS011;10307;40.100;18.336;2022-12-18T15:46:26;15.13;;;6.55;;
20296;SDS011;10307;40.100;18.336;2022-12-18T15:48:53;17.95;;;7.90;;
20296;SDS011;10307;40.100;18.336;2022-12-18T15:51:34;29.40;;;11.63;;
20296;SDS011;10307;40.100;18.336;2022-12-18T15:54:02;25.90;;;10.25;;
20296;SDS011;10307;40.100;18.336;2022-12-18T15:56:32;18.10;;;9.30;;
20296;SDS011;10307;40.100;18.336;2022-12-18T15:59:18;27.83;;;9.55;;
20296;SDS011;10307;40.100;18.336;2022-12-18T16:01:46;21.58;;;9.20;;
20296;SDS011;10307;40.100;18.336;2022-12-18T16:04:15;27.38;;;11.13;;
20296;SDS011;10307;40.100;18.336;2022-12-18T16:06:44;28.83;;;10.57;;
20296;SDS011;10307;40.100;18.336;2022-12-18T16:09:11;20.25;;;9.23;;
20296;SDS011;10307;40.100;18.336;2022-12-18T16:11:37;20.27;;;9.43;;
20296;SDS011;10307;40.100;18.336;2022-12-18T16:16:43;18.20;;;9.30;;
20296;SDS011;10307;40.100;18.336;2022-12-18T16:19:10;18.08;;;9.25;;
20296;SDS011;10307;40.100;18.336;2022-12-18T16:21:37;18.50;;;10.35;;
20296;SDS011;10307;40.100;18.336;2022-12-18T16:24:04;14.00;;;6.63;;
20296;SDS011;10307;40.100;18.336;2022-12-18T16:26:30;16.75;;;7.15;;
20296;SDS011;10307;40.100;18.336;2022-12-18T16:28:57;18.25;;;7.30;;
20296;SDS011;10307;40.100;18.336;2022-12-18T16:31:23;13.68;;;6.10;;
20296;SDS011;10307;40.100;18.336;2022-12-18T16:33:50;12.02;;;5.32;;
20296;SDS011;10307;40.100;18.336;2022-12-18T16:36:41;14.30;;;7.20;;
20296;SDS011;10307;40.100;18.336;2022-12-18T16:39:07;14.30;;;5.43;;
20296;SDS011;10307;40.100;18.336;2022-12-18T16:41:33;14.95;;;6.20;;
20296;SDS011;10307;40.100;18.336;2022-12-18T16:44:00;13.73;;;6.30;;
20296;SDS011;10307;40.100;18.336;2022-12-18T16:46:27;14.43;;;6.10;;
20296;SDS011;10307;40.100;18.336;2022-12-18T16:48:57;11.65;;;5.30;;
20296;SDS011;10307;40.100;18.336;2022-12-18T16:51:26;14.52;;;6.05;;
20296;SDS011;10307;40.100;18.336;2022-12-18T16:53:53;14.30;;;6.95;;
20296;SDS011;10307;40.100;18.336;2022-12-18T16:56:20;15.20;;;7.38;;
20296;SDS011;10307;40.100;18.336;2022-12-18T16:58:51;17.42;;;6.30;;
20296;SDS011;10307;40.100;18.336;2022-12-18T17:01:18;13.97;;;6.20;;
20296;SDS011;10307;40.100;18.336;2022-12-18T17:03:52;15.43;;;6.78;;
20296;SDS011;10307;40.100;18.336;2022-12-18T17:06:23;15.73;;;7.88;;
20296;SDS011;10307;40.100;18.336;2022-12-18T17:08:56;22.90;;;10.02;;
20296;SDS011;10307;40.100;18.336;2022-12-18T17:11:25;16.73;;;7.38;;
20296;SDS011;10307;40.100;18.336;2022-12-18T17:13:52;15.10;;;8.13;;
20296;SDS011;10307;40.100;18.336;2022-12-18T17:16:19;13.85;;;7.10;;